sensor_id;sensor_type;location;lat;lon;timestamp;pressure;altitude;pressure_sealevel;temperature;humidity
46690;BME280;32423;45.398;10.874;2023-08-24T00:01:13;100776.25;;;31.70;46.58
46690;BME280;32423;45.398;10.874;2023-08-24T00:04:06;100770.97;;;31.72;46.31
46690;BME280;32423;45.398;10.874;2023-08-24T00:06:58;100778.16;;;31.73;46.29
46690;BME280;32423;45.398;10.874;2023-08-24T00:09:52;100777.72;;;31.74;46.36
46690;BME280;32423;45.398;10.874;2023-08-24T00:12:41;100778.31;;;31.69;46.69
46690;BME280;32423;45.398;10.874;2023-08-24T00:15:33;100775.41;;;31.60;46.59
46690;BME280;32423;45.398;10.874;2023-08-24T00:18:25;100775.56;;;31.57;46.37
46690;BME280;32423;45.398;10.874;2023-08-24T00:21:17;100778.16;;;31.51;46.93
46690;BME280;32423;45.398;10.874;2023-08-24T00:24:05;100762.44;;;31.41;47.43
46690;BME280;32423;45.398;10.874;2023-08-24T00:26:52;100769.19;;;31.43;46.45
46690;BME280;32423;45.398;10.874;2023-08-24T00:29:42;100768.53;;;31.39;46.95
46690;BME280;32423;45.398;10.874;2023-08-24T00:32:34;100772.13;;;31.40;46.21
46690;BME280;32423;45.398;10.874;2023-08-24T00:35:26;100766.19;;;31.38;46.45
46690;BME280;32423;45.398;10.874;2023-08-24T00:38:15;100772.72;;;31.35;46.45
46690;BME280;32423;45.398;10.874;2023-08-24T00:41:05;100773.84;;;31.37;46.37
46690;BME280;32423;45.398;10.874;2023-08-24T00:43:57;100769.59;;;31.33;46.75
46690;BME280;32423;45.398;10.874;2023-08-24T00:46:49;100761.75;;;31.28;46.90
46690;BME280;32423;45.398;10.874;2023-08-24T00:49:38;100757.81;;;31.25;46.86
46690;BME280;32423;45.398;10.874;2023-08-24T00:52:31;100765.91;;;31.23;47.07
46690;BME280;32423;45.398;10.874;2023-08-24T00:55:24;100770.75;;;31.23;46.94
46690;BME280;32423;45.398;10.874;2023-08-24T00:58:16;100769.91;;;31.13;47.45
46690;BME280;32423;45.398;10.874;2023-08-24T01:01:08;100766.41;;;31.09;47.54
46690;BME280;32423;45.398;10.874;2023-08-24T01:03:57;100766.28;;;31.13;47.36
46690;BME280;32423;45.398;10.874;2023-08-24T01:06:49;100767.28;;;31.19;47.06
46690;BME280;32423;45.398;10.874;2023-08-24T01:09:41;100776.47;;;31.19;47.33
46690;BME280;32423;45.398;10.874;2023-08-24T01:18:32;100774.47;;;31.20;47.54
46690;BME280;32423;45.398;10.874;2023-08-24T01:21:26;100772.91;;;31.19;47.46
46690;BME280;32423;45.398;10.874;2023-08-24T01:24:24;100774.72;;;31.13;47.46
46690;BME280;32423;45.398;10.874;2023-08-24T01:27:22;100779.56;;;31.12;47.43
46690;BME280;32423;45.398;10.874;2023-08-24T01:30:14;100777.63;;;31.09;47.93
46690;BME280;32423;45.398;10.874;2023-08-24T01:33:06;100775.75;;;31.06;48.03
46690;BME280;32423;45.398;10.874;2023-08-24T01:36:01;100774.72;;;31.00;48.26
46690;BME280;32423;45.398;10.874;2023-08-24T01:39:00;100769.56;;;30.98;48.66
46690;BME280;32423;45.398;10.874;2023-08-24T01:41:55;100768.31;;;30.99;48.44
46690;BME280;32423;45.398;10.874;2023-08-24T01:44:52;100769.69;;;30.95;48.94
46690;BME280;32423;45.398;10.874;2023-08-24T01:47:51;100767.44;;;30.90;48.44
46690;BME280;32423;45.398;10.874;2023-08-24T01:50:43;100771.50;;;30.89;48.31
46690;BME280;32423;45.398;10.874;2023-08-24T01:53:33;100771.50;;;30.89;47.94
46690;BME280;32423;45.398;10.874;2023-08-24T01:56:23;100769.94;;;30.88;48.68
46690;BME280;32423;45.398;10.874;2023-08-24T01:59:13;100760.38;;;30.85;48.70
46690;BME280;32423;45.398;10.874;2023-08-24T02:02:05;100759.28;;;30.83;48.85
46690;BME280;32423;45.398;10.874;2023-08-24T02:04:57;100759.38;;;30.79;48.70
46690;BME280;32423;45.398;10.874;2023-08-24T02:07:49;100757.63;;;30.73;48.69
46690;BME280;32423;45.398;10.874;2023-08-24T02:10:41;100758.84;;;30.72;48.44
46690;BME280;32423;45.398;10.874;2023-08-24T02:13:31;100757.97;;;30.62;48.76
46690;BME280;32423;45.398;10.874;2023-08-24T02:16:21;100748.50;;;30.69;48.21
46690;BME280;32423;45.398;10.874;2023-08-24T02:19:13;100754.47;;;30.71;48.36
46690;BME280;32423;45.398;10.874;2023-08-24T02:22:05;100746.97;;;30.68;48.40
46690;BME280;32423;45.398;10.874;2023-08-24T02:24:54;100741.22;;;30.58;48.76
46690;BME280;32423;45.398;10.874;2023-08-24T02:27:46;100742.72;;;30.50;48.82
46690;BME280;32423;45.398;10.874;2023-08-24T02:30:41;100747.88;;;30.52;48.81
46690;BME280;32423;45.398;10.874;2023-08-24T02:33:33;100746.19;;;30.54;48.94
46690;BME280;32423;45.398;10.874;2023-08-24T02:36:25;100750.34;;;30.50;48.80
46690;BME280;32423;45.398;10.874;2023-08-24T02:39:17;100750.00;;;30.48;48.98
46690;BME280;32423;45.398;10.874;2023-08-24T02:42:09;100747.06;;;30.39;49.45
46690;BME280;32423;45.398;10.874;2023-08-24T02:44:58;100744.03;;;30.33;49.81
46690;BME280;32423;45.398;10.874;2023-08-24T02:47:45;100744.84;;;30.34;49.55
46690;BME280;32423;45.398;10.874;2023-08-24T02:50:38;100734.41;;;30.34;49.60
46690;BME280;32423;45.398;10.874;2023-08-24T02:53:29;100738.44;;;30.33;49.48
46690;BME280;32423;45.398;10.874;2023-08-24T02:56:19;100722.72;;;30.36;49.30
46690;BME280;32423;45.398;10.874;2023-08-24T02:59:08;100720.47;;;30.43;49.08
46690;BME280;32423;45.398;10.874;2023-08-24T03:01:58;100730.00;;;30.46;49.63
46690;BME280;32423;45.398;10.874;2023-08-24T03:04:50;100728.34;;;30.36;49.38
46690;BME280;32423;45.398;10.874;2023-08-24T03:07:42;100728.78;;;30.34;50.07
46690;BME280;32423;45.398;10.874;2023-08-24T03:10:34;100732.25;;;30.38;49.99
46690;BME280;32423;45.398;10.874;2023-08-24T03:13:27;100745.63;;;30.34;50.29
46690;BME280;32423;45.398;10.874;2023-08-24T03:16:19;100741.34;;;30.30;50.23
46690;BME280;32423;45.398;10.874;2023-08-24T03:19:11;100742.38;;;30.23;50.30
46690;BME280;32423;45.398;10.874;2023-08-24T03:22:03;100740.47;;;30.20;50.00
46690;BME280;32423;45.398;10.874;2023-08-24T03:24:55;100739.56;;;30.10;50.10
46690;BME280;32423;45.398;10.874;2023-08-24T03:27:47;100737.22;;;30.09;50.51
46690;BME280;32423;45.398;10.874;2023-08-24T03:30:39;100741.59;;;30.10;50.35
46690;BME280;32423;45.398;10.874;2023-08-24T03:33:32;100744.63;;;30.15;50.41
46690;BME280;32423;45.398;10.874;2023-08-24T03:36:24;100742.38;;;30.10;50.70
46690;BME280;32423;45.398;10.874;2023-08-24T03:39:13;100735.63;;;30.08;50.57
46690;BME280;32423;45.398;10.874;2023-08-24T03:41:59;100738.22;;;30.02;50.74
46690;BME280;32423;45.398;10.874;2023-08-24T03:44:51;100741.13;;;29.99;50.88
46690;BME280;32423;45.398;10.874;2023-08-24T03:47:43;100738.88;;;29.94;50.83
46690;BME280;32423;45.398;10.874;2023-08-24T03:50:35;100742.28;;;30.01;51.12
46690;BME280;32423;45.398;10.874;2023-08-24T03:53:27;100754.59;;;30.04;50.72
46690;BME280;32423;45.398;10.874;2023-08-24T03:56:19;100753.81;;;30.03;51.08
46690;BME280;32423;45.398;10.874;2023-08-24T03:59:11;100751.78;;;30.04;50.97
46690;BME280;32423;45.398;10.874;2023-08-24T04:02:03;100748.53;;;29.93;51.14
46690;BME280;32423;45.398;10.874;2023-08-24T04:04:52;100751.75;;;29.21;53.56
46690;BME280;32423;45.398;10.874;2023-08-24T04:07:41;100747.09;;;29.02;53.95
46690;BME280;32423;45.398;10.874;2023-08-24T04:10:31;100750.94;;;28.91;54.09
46690;BME280;32423;45.398;10.874;2023-08-24T04:13:20;100752.50;;;28.60;54.68
46690;BME280;32423;45.398;10.874;2023-08-24T04:16:12;100752.53;;;28.44;55.68
46690;BME280;32423;45.398;10.874;2023-08-24T04:19:04;100758.41;;;28.49;55.25
46690;BME280;32423;45.398;10.874;2023-08-24T04:21:57;100760.16;;;28.07;57.02
46690;BME280;32423;45.398;10.874;2023-08-24T04:24:49;100770.66;;;27.64;58.17
46690;BME280;32423;45.398;10.874;2023-08-24T04:27:41;100776.06;;;27.32;59.75
46690;BME280;32423;45.398;10.874;2023-08-24T04:30:35;100784.16;;;27.26;59.50
46690;BME280;32423;45.398;10.874;2023-08-24T04:33:27;100784.13;;;27.06;60.39
46690;BME280;32423;45.398;10.874;2023-08-24T04:36:19;100790.91;;;27.48;59.39
46690;BME280;32423;45.398;10.874;2023-08-24T04:39:11;100781.50;;;27.62;58.82
46690;BME280;32423;45.398;10.874;2023-08-24T04:42:03;100782.06;;;27.73;58.33
46690;BME280;32423;45.398;10.874;2023-08-24T04:44:55;100782.97;;;27.86;58.82
46690;BME280;32423;45.398;10.874;2023-08-24T04:47:47;100777.25;;;27.93;58.60
46690;BME280;32423;45.398;10.874;2023-08-24T04:50:39;100779.72;;;28.07;57.46
46690;BME280;32423;45.398;10.874;2023-08-24T04:53:31;100776.63;;;28.22;57.01
46690;BME280;32423;45.398;10.874;2023-08-24T04:56:24;100783.19;;;28.31;56.49
46690;BME280;32423;45.398;10.874;2023-08-24T04:59:16;100788.19;;;28.40;55.97
46690;BME280;32423;45.398;10.874;2023-08-24T05:02:08;100785.66;;;28.45;55.87
46690;BME280;32423;45.398;10.874;2023-08-24T05:05:00;100783.13;;;28.51;55.36
46690;BME280;32423;45.398;10.874;2023-08-24T05:07:51;100787.41;;;28.56;55.54
46690;BME280;32423;45.398;10.874;2023-08-24T05:10:43;100791.38;;;28.58;55.49
46690;BME280;32423;45.398;10.874;2023-08-24T05:13:33;100796.88;;;28.62;55.29
46690;BME280;32423;45.398;10.874;2023-08-24T05:16:25;100796.34;;;28.67;55.27
46690;BME280;32423;45.398;10.874;2023-08-24T05:19:17;100801.84;;;28.70;55.15
46690;BME280;32423;45.398;10.874;2023-08-24T05:22:09;100799.00;;;28.74;54.80
46690;BME280;32423;45.398;10.874;2023-08-24T05:25:01;100797.69;;;28.78;54.94
46690;BME280;32423;45.398;10.874;2023-08-24T05:27:53;100798.38;;;28.82;54.87
46690;BME280;32423;45.398;10.874;2023-08-24T05:30:45;100791.47;;;28.87;55.12
46690;BME280;32423;45.398;10.874;2023-08-24T05:33:37;100798.28;;;28.86;55.06
46690;BME280;32423;45.398;10.874;2023-08-24T05:36:29;100797.97;;;28.84;54.90
46690;BME280;32423;45.398;10.874;2023-08-24T05:39:21;100803.09;;;28.85;54.92
46690;BME280;32423;45.398;10.874;2023-08-24T05:42:13;100813.44;;;28.88;55.05
46690;BME280;32423;45.398;10.874;2023-08-24T05:45:05;100805.81;;;28.89;55.34
46690;BME280;32423;45.398;10.874;2023-08-24T05:47:57;100805.31;;;28.94;55.41
46690;BME280;32423;45.398;10.874;2023-08-24T05:50:55;100810.78;;;28.98;55.44
46690;BME280;32423;45.398;10.874;2023-08-24T05:53:47;100801.97;;;28.99;55.78
46690;BME280;32423;45.398;10.874;2023-08-24T05:56:39;100811.50;;;29.02;55.95
46690;BME280;32423;45.398;10.874;2023-08-24T05:59:31;100810.28;;;29.03;55.75
46690;BME280;32423;45.398;10.874;2023-08-24T06:02:23;100814.53;;;29.07;56.23
46690;BME280;32423;45.398;10.874;2023-08-24T06:05:15;100811.31;;;29.09;55.70
46690;BME280;32423;45.398;10.874;2023-08-24T06:08:07;100814.44;;;29.11;55.88
46690;BME280;32423;45.398;10.874;2023-08-24T06:10:57;100810.00;;;29.13;55.66
46690;BME280;32423;45.398;10.874;2023-08-24T06:13:49;100808.78;;;29.14;55.94
46690;BME280;32423;45.398;10.874;2023-08-24T06:16:41;100811.03;;;29.19;55.68
46690;BME280;32423;45.398;10.874;2023-08-24T06:19:33;100816.53;;;29.23;55.34
46690;BME280;32423;45.398;10.874;2023-08-24T06:22:25;100821.25;;;29.26;55.49
46690;BME280;32423;45.398;10.874;2023-08-24T06:25:14;100805.16;;;29.30;54.84
46690;BME280;32423;45.398;10.874;2023-08-24T06:28:06;100805.09;;;29.33;54.88
46690;BME280;32423;45.398;10.874;2023-08-24T06:30:56;100804.97;;;29.37;54.65
46690;BME280;32423;45.398;10.874;2023-08-24T06:33:49;100810.50;;;29.41;54.39
46690;BME280;32423;45.398;10.874;2023-08-24T06:36:42;100811.19;;;29.45;54.26
46690;BME280;32423;45.398;10.874;2023-08-24T06:39:33;100822.66;;;29.50;53.84
46690;BME280;32423;45.398;10.874;2023-08-24T06:42:25;100816.50;;;29.55;53.68
46690;BME280;32423;45.398;10.874;2023-08-24T06:45:17;100822.00;;;29.59;53.58
46690;BME280;32423;45.398;10.874;2023-08-24T06:48:07;100824.16;;;29.67;53.50
46690;BME280;32423;45.398;10.874;2023-08-24T06:50:52;100819.22;;;29.71;53.80
46690;BME280;32423;45.398;10.874;2023-08-24T06:53:44;100820.25;;;29.77;53.57
46690;BME280;32423;45.398;10.874;2023-08-24T06:56:36;100828.59;;;29.81;53.35
46690;BME280;32423;45.398;10.874;2023-08-24T06:59:28;100828.81;;;29.87;52.88
46690;BME280;32423;45.398;10.874;2023-08-24T07:02:17;100830.66;;;29.93;52.99
46690;BME280;32423;45.398;10.874;2023-08-24T07:05:09;100830.09;;;29.98;52.59
46690;BME280;32423;45.398;10.874;2023-08-24T07:07:58;100832.34;;;30.03;52.65
46690;BME280;32423;45.398;10.874;2023-08-24T07:10:50;100826.97;;;30.09;52.33
46690;BME280;32423;45.398;10.874;2023-08-24T07:13:40;100827.22;;;30.14;52.38
46690;BME280;32423;45.398;10.874;2023-08-24T07:16:32;100817.44;;;30.19;52.13
46690;BME280;32423;45.398;10.874;2023-08-24T07:19:23;100814.88;;;30.25;51.97
46690;BME280;32423;45.398;10.874;2023-08-24T07:22:16;100815.91;;;30.31;52.05
46690;BME280;32423;45.398;10.874;2023-08-24T07:25:08;100814.91;;;30.37;51.63
46690;BME280;32423;45.398;10.874;2023-08-24T07:27:58;100815.09;;;30.43;51.50
46690;BME280;32423;45.398;10.874;2023-08-24T07:30:50;100805.38;;;30.47;51.69
46690;BME280;32423;45.398;10.874;2023-08-24T07:33:39;100818.84;;;30.52;51.29
46690;BME280;32423;45.398;10.874;2023-08-24T07:36:33;100816.16;;;30.62;51.16
46690;BME280;32423;45.398;10.874;2023-08-24T07:39:24;100811.06;;;30.69;50.91
46690;BME280;32423;45.398;10.874;2023-08-24T07:42:16;100818.13;;;30.74;50.78
46690;BME280;32423;45.398;10.874;2023-08-24T07:45:06;100816.78;;;30.78;50.62
46690;BME280;32423;45.398;10.874;2023-08-24T07:47:59;100818.56;;;30.85;50.08
46690;BME280;32423;45.398;10.874;2023-08-24T07:50:51;100820.38;;;30.91;49.64
46690;BME280;32423;45.398;10.874;2023-08-24T07:53:41;100823.41;;;30.97;50.07
46690;BME280;32423;45.398;10.874;2023-08-24T07:56:33;100812.81;;;31.01;50.23
46690;BME280;32423;45.398;10.874;2023-08-24T07:59:25;100823.84;;;31.08;49.33
46690;BME280;32423;45.398;10.874;2023-08-24T08:02:12;100823.28;;;31.13;49.15
46690;BME280;32423;45.398;10.874;2023-08-24T08:05:04;100829.44;;;31.21;47.90
46690;BME280;32423;45.398;10.874;2023-08-24T08:07:54;100829.50;;;31.30;47.86
46690;BME280;32423;45.398;10.874;2023-08-24T08:10:45;100827.56;;;31.39;46.90
46690;BME280;32423;45.398;10.874;2023-08-24T08:13:37;100814.38;;;31.49;45.68
46690;BME280;32423;45.398;10.874;2023-08-24T08:16:27;100822.63;;;31.65;45.38
46690;BME280;32423;45.398;10.874;2023-08-24T08:19:19;100815.47;;;31.64;45.84
46690;BME280;32423;45.398;10.874;2023-08-24T08:22:10;100815.72;;;31.79;44.94
46690;BME280;32423;45.398;10.874;2023-08-24T08:25:02;100828.25;;;31.87;45.25
46690;BME280;32423;45.398;10.874;2023-08-24T08:27:54;100822.97;;;31.89;45.17
46690;BME280;32423;45.398;10.874;2023-08-24T08:30:44;100822.38;;;31.94;45.07
46690;BME280;32423;45.398;10.874;2023-08-24T08:33:33;100816.16;;;31.99;44.92
46690;BME280;32423;45.398;10.874;2023-08-24T08:36:23;100817.59;;;32.04;44.46
46690;BME280;32423;45.398;10.874;2023-08-24T08:39:12;100825.78;;;32.11;44.33
46690;BME280;32423;45.398;10.874;2023-08-24T08:42:04;100830.34;;;32.17;44.45
46690;BME280;32423;45.398;10.874;2023-08-24T08:44:56;100834.31;;;32.29;43.46
46690;BME280;32423;45.398;10.874;2023-08-24T08:47:47;100825.72;;;32.33;43.61
46690;BME280;32423;45.398;10.874;2023-08-24T08:50:38;100826.09;;;32.44;43.44
46690;BME280;32423;45.398;10.874;2023-08-24T08:53:28;100831.31;;;32.54;42.97
46690;BME280;32423;45.398;10.874;2023-08-24T08:56:20;100832.78;;;32.68;42.83
46690;BME280;32423;45.398;10.874;2023-08-24T08:59:13;100825.75;;;32.73;43.25
46690;BME280;32423;45.398;10.874;2023-08-24T09:02:05;100831.56;;;32.78;42.59
46690;BME280;32423;45.398;10.874;2023-08-24T09:04:59;100834.09;;;32.85;42.71
46690;BME280;32423;45.398;10.874;2023-08-24T09:07:49;100831.56;;;32.87;42.75
46690;BME280;32423;45.398;10.874;2023-08-24T09:10:41;100820.00;;;32.94;42.07
46690;BME280;32423;45.398;10.874;2023-08-24T09:13:33;100822.06;;;33.03;41.39
46690;BME280;32423;45.398;10.874;2023-08-24T09:16:25;100809.25;;;33.11;41.65
46690;BME280;32423;45.398;10.874;2023-08-24T09:19:19;100825.56;;;33.16;41.55
46690;BME280;32423;45.398;10.874;2023-08-24T09:22:07;100814.59;;;33.18;41.68
46690;BME280;32423;45.398;10.874;2023-08-24T09:24:56;100814.59;;;33.27;40.20
46690;BME280;32423;45.398;10.874;2023-08-24T09:28:03;100806.94;;;33.37;40.73
46690;BME280;32423;45.398;10.874;2023-08-24T09:30:55;100805.97;;;33.40;40.22
46690;BME280;32423;45.398;10.874;2023-08-24T09:33:47;100798.00;;;33.57;39.05
46690;BME280;32423;45.398;10.874;2023-08-24T09:36:37;100799.06;;;33.68;39.79
46690;BME280;32423;45.398;10.874;2023-08-24T09:39:29;100794.38;;;33.74;40.11
46690;BME280;32423;45.398;10.874;2023-08-24T09:42:24;100794.19;;;33.87;39.45
46690;BME280;32423;45.398;10.874;2023-08-24T09:45:17;100785.41;;;33.85;40.02
46690;BME280;32423;45.398;10.874;2023-08-24T09:48:05;100787.94;;;33.83;40.16
46690;BME280;32423;45.398;10.874;2023-08-24T09:50:55;100793.38;;;33.96;39.28
46690;BME280;32423;45.398;10.874;2023-08-24T09:53:48;100782.41;;;33.98;39.04
46690;BME280;32423;45.398;10.874;2023-08-24T09:56:40;100783.94;;;34.08;37.16
46690;BME280;32423;45.398;10.874;2023-08-24T09:59:32;100788.31;;;34.09;39.59
46690;BME280;32423;45.398;10.874;2023-08-24T10:02:25;100784.22;;;34.19;38.11
46690;BME280;32423;45.398;10.874;2023-08-24T10:05:29;100785.31;;;34.21;38.32
46690;BME280;32423;45.398;10.874;2023-08-24T10:08:19;100776.91;;;34.45;37.09
46690;BME280;32423;45.398;10.874;2023-08-24T10:11:11;100778.34;;;34.41;37.22
46690;BME280;32423;45.398;10.874;2023-08-24T10:14:13;100785.75;;;34.62;37.65
46690;BME280;32423;45.398;10.874;2023-08-24T10:17:08;100766.25;;;34.73;37.49
46690;BME280;32423;45.398;10.874;2023-08-24T10:20:00;100767.22;;;34.61;39.16
46690;BME280;32423;45.398;10.874;2023-08-24T10:22:58;100773.84;;;34.58;38.46
46690;BME280;32423;45.398;10.874;2023-08-24T10:25:51;100765.53;;;34.54;37.05
46690;BME280;32423;45.398;10.874;2023-08-24T10:28:42;100770.53;;;34.59;37.40
46690;BME280;32423;45.398;10.874;2023-08-24T10:31:34;100761.41;;;34.64;37.84
46690;BME280;32423;45.398;10.874;2023-08-24T10:34:26;100757.13;;;34.78;36.43
46690;BME280;32423;45.398;10.874;2023-08-24T10:37:15;100766.44;;;34.93;37.69
46690;BME280;32423;45.398;10.874;2023-08-24T10:40:05;100758.91;;;34.90;36.59
46690;BME280;32423;45.398;10.874;2023-08-24T10:42:57;100756.50;;;34.98;35.48
46690;BME280;32423;45.398;10.874;2023-08-24T10:46:03;100751.81;;;35.18;34.52
46690;BME280;32423;45.398;10.874;2023-08-24T10:48:58;100751.13;;;35.24;34.76
46690;BME280;32423;45.398;10.874;2023-08-24T10:51:47;100750.81;;;35.22;34.79
46690;BME280;32423;45.398;10.874;2023-08-24T10:54:39;100750.06;;;35.36;33.89
46690;BME280;32423;45.398;10.874;2023-08-24T10:57:38;100747.84;;;35.40;35.19
46690;BME280;32423;45.398;10.874;2023-08-24T11:00:31;100743.91;;;35.37;35.79
46690;BME280;32423;45.398;10.874;2023-08-24T11:03:30;100745.69;;;35.49;34.53
46690;BME280;32423;45.398;10.874;2023-08-24T11:06:23;100745.69;;;35.49;33.80
46690;BME280;32423;45.398;10.874;2023-08-24T11:09:15;100737.22;;;35.49;34.89
46690;BME280;32423;45.398;10.874;2023-08-24T11:12:07;100732.63;;;35.67;32.69
46690;BME280;32423;45.398;10.874;2023-08-24T11:14:56;100737.41;;;35.90;31.93
46690;BME280;32423;45.398;10.874;2023-08-24T11:18:10;100725.78;;;35.88;32.73
46690;BME280;32423;45.398;10.874;2023-08-24T11:21:05;100720.63;;;36.01;32.66
46690;BME280;32423;45.398;10.874;2023-08-24T11:23:54;100723.84;;;35.94;31.21
46690;BME280;32423;45.398;10.874;2023-08-24T11:26:47;100729.19;;;35.92;31.75
46690;BME280;32423;45.398;10.874;2023-08-24T11:29:34;100714.94;;;35.86;31.25
46690;BME280;32423;45.398;10.874;2023-08-24T11:32:23;100723.25;;;35.90;30.27
46690;BME280;32423;45.398;10.874;2023-08-24T11:35:15;100721.59;;;35.98;29.91
46690;BME280;32423;45.398;10.874;2023-08-24T11:38:06;100714.44;;;36.17;30.56
46690;BME280;32423;45.398;10.874;2023-08-24T11:40:58;100716.09;;;36.09;30.03
46690;BME280;32423;45.398;10.874;2023-08-24T11:43:47;100717.66;;;36.10;30.50
46690;BME280;32423;45.398;10.874;2023-08-24T11:46:39;100711.41;;;36.21;28.76
46690;BME280;32423;45.398;10.874;2023-08-24T11:49:31;100702.88;;;36.56;28.96
46690;BME280;32423;45.398;10.874;2023-08-24T11:52:22;100696.31;;;36.64;27.40
46690;BME280;32423;45.398;10.874;2023-08-24T11:55:14;100697.91;;;36.51;30.49
46690;BME280;32423;45.398;10.874;2023-08-24T11:58:06;100692.38;;;36.41;29.71
46690;BME280;32423;45.398;10.874;2023-08-24T12:01:00;100695.22;;;36.41;30.52
46690;BME280;32423;45.398;10.874;2023-08-24T12:03:52;100690.13;;;36.46;28.61
46690;BME280;32423;45.398;10.874;2023-08-24T12:06:43;100692.25;;;36.51;27.29
46690;BME280;32423;45.398;10.874;2023-08-24T12:09:33;100687.69;;;36.59;27.91
46690;BME280;32423;45.398;10.874;2023-08-24T12:12:22;100684.88;;;36.79;26.21
46690;BME280;32423;45.398;10.874;2023-08-24T12:15:20;100680.84;;;36.85;26.39
46690;BME280;32423;45.398;10.874;2023-08-24T12:18:12;100677.53;;;36.87;26.55
46690;BME280;32423;45.398;10.874;2023-08-24T12:21:04;100669.94;;;37.04;26.77
46690;BME280;32423;45.398;10.874;2023-08-24T12:24:00;100671.56;;;36.85;29.65
46690;BME280;32423;45.398;10.874;2023-08-24T12:26:55;100672.84;;;36.64;30.89
46690;BME280;32423;45.398;10.874;2023-08-24T12:29:47;100672.06;;;36.63;30.31
46690;BME280;32423;45.398;10.874;2023-08-24T12:32:45;100659.19;;;36.62;29.33
46690;BME280;32423;45.398;10.874;2023-08-24T12:35:33;100662.66;;;36.72;29.43
46690;BME280;32423;45.398;10.874;2023-08-24T12:38:25;100655.13;;;36.69;29.54
46690;BME280;32423;45.398;10.874;2023-08-24T12:41:17;100643.84;;;36.74;27.81
46690;BME280;32423;45.398;10.874;2023-08-24T12:44:08;100651.34;;;36.98;25.50
46690;BME280;32423;45.398;10.874;2023-08-24T12:46:58;100645.66;;;37.23;25.12
46690;BME280;32423;45.398;10.874;2023-08-24T12:49:50;100651.34;;;37.23;25.98
46690;BME280;32423;45.398;10.874;2023-08-24T12:52:40;100643.84;;;37.20;25.48
46690;BME280;32423;45.398;10.874;2023-08-24T12:55:29;100643.06;;;37.20;26.79
46690;BME280;32423;45.398;10.874;2023-08-24T12:58:21;100636.56;;;37.14;24.07
46690;BME280;32423;45.398;10.874;2023-08-24T13:01:11;100634.91;;;37.28;27.12
46690;BME280;32423;45.398;10.874;2023-08-24T13:04:03;100635.03;;;37.44;26.85
46690;BME280;32423;45.398;10.874;2023-08-24T13:06:55;100633.44;;;37.38;27.19
46690;BME280;32423;45.398;10.874;2023-08-24T13:09:47;100637.78;;;37.33;27.51
46690;BME280;32423;45.398;10.874;2023-08-24T13:12:37;100625.78;;;37.18;29.08
46690;BME280;32423;45.398;10.874;2023-08-24T13:15:29;100624.44;;;37.13;28.93
46690;BME280;32423;45.398;10.874;2023-08-24T13:18:18;100610.78;;;37.12;28.96
46690;BME280;32423;45.398;10.874;2023-08-24T13:21:08;100614.09;;;37.10;27.65
46690;BME280;32423;45.398;10.874;2023-08-24T13:23:58;100600.47;;;37.14;27.30
46690;BME280;32423;45.398;10.874;2023-08-24T13:27:09;100606.88;;;37.41;25.62
46690;BME280;32423;45.398;10.874;2023-08-24T13:30:04;100606.44;;;37.48;26.75
46690;BME280;32423;45.398;10.874;2023-08-24T13:32:51;100604.22;;;37.57;25.52
46690;BME280;32423;45.398;10.874;2023-08-24T13:35:45;100591.56;;;37.58;26.45
46690;BME280;32423;45.398;10.874;2023-08-24T13:38:37;100590.69;;;37.47;26.87
46690;BME280;32423;45.398;10.874;2023-08-24T13:41:26;100589.53;;;37.64;26.09
46690;BME280;32423;45.398;10.874;2023-08-24T13:44:23;100591.88;;;37.66;25.61
46690;BME280;32423;45.398;10.874;2023-08-24T13:47:15;100586.69;;;37.59;26.69
46690;BME280;32423;45.398;10.874;2023-08-24T13:50:07;100583.16;;;37.75;25.59
46690;BME280;32423;45.398;10.874;2023-08-24T13:52:57;100584.78;;;37.87;25.46
46690;BME280;32423;45.398;10.874;2023-08-24T13:55:44;100583.47;;;37.83;25.44
46690;BME280;32423;45.398;10.874;2023-08-24T13:58:33;100581.06;;;37.70;26.58
46690;BME280;32423;45.398;10.874;2023-08-24T14:01:23;100580.03;;;37.67;26.20
46690;BME280;32423;45.398;10.874;2023-08-24T14:04:12;100576.44;;;37.73;26.23
46690;BME280;32423;45.398;10.874;2023-08-24T14:06:59;100577.69;;;37.66;26.53
46690;BME280;32423;45.398;10.874;2023-08-24T14:09:49;100571.97;;;37.60;27.04
46690;BME280;32423;45.398;10.874;2023-08-24T14:12:40;100573.28;;;37.65;26.18
46690;BME280;32423;45.398;10.874;2023-08-24T14:15:32;100565.81;;;37.67;27.11
46690;BME280;32423;45.398;10.874;2023-08-24T14:18:24;100571.34;;;37.51;27.65
46690;BME280;32423;45.398;10.874;2023-08-24T14:21:16;100560.97;;;37.42;28.72
46690;BME280;32423;45.398;10.874;2023-08-24T14:24:08;100556.53;;;37.36;27.50
46690;BME280;32423;45.398;10.874;2023-08-24T14:26:57;100559.19;;;37.45;27.29
46690;BME280;32423;45.398;10.874;2023-08-24T14:29:49;100559.91;;;37.40;27.56
46690;BME280;32423;45.398;10.874;2023-08-24T14:32:41;100562.13;;;37.56;26.94
46690;BME280;32423;45.398;10.874;2023-08-24T14:35:30;100561.28;;;37.50;27.54
46690;BME280;32423;45.398;10.874;2023-08-24T14:38:22;100563.53;;;37.40;28.08
46690;BME280;32423;45.398;10.874;2023-08-24T14:41:12;100559.38;;;37.36;27.40
46690;BME280;32423;45.398;10.874;2023-08-24T14:44:07;100562.22;;;37.36;27.10
46690;BME280;32423;45.398;10.874;2023-08-24T14:46:59;100558.72;;;37.52;26.56
46690;BME280;32423;45.398;10.874;2023-08-24T14:49:51;100553.75;;;37.41;27.34
46690;BME280;32423;45.398;10.874;2023-08-24T14:52:43;100549.84;;;37.39;27.60